EJA804 KAUO-07FA
Flight info
| Callsign | EJA804 |
|---|---|
| Flight time | 1h 18m |
| Altitude | 45000 |
| Route | GEF DCT CTY DCT PIE PALMZ2 |
| Aircraft | C700/M-SBDGHM1RWXY/LB2 |
Departure
| Time | 2026-05-07 21:15 |
|---|---|
| Airport | Auburn University Regional Airport (KAUO) |
Arrival
| Time | 2026-05-07 22:33 |
|---|---|
| Airport | Ocean Reef Club Airport (07FA) |
| Time | Latitude | Longitude | Altitude | Speed | Heading |
|---|---|---|---|---|---|
| 2026-05-07 21:07 | 32.61343 | -85.43355 | 756 ft | 0 kts | 271° |
| 2026-05-07 21:11 | 32.60601 | -85.43634 | 738 ft | 0 kts | 1° |
| 2026-05-07 21:14 | 32.60696 | -85.43633 | 743 ft | 49 kts | 1° |
| 2026-05-07 21:15 | 32.61358 | -85.43620 | 764 ft | 139 kts | 1° |
| 2026-05-07 21:15 | 32.62427 | -85.43514 | 1373 ft | 172 kts | 1° |
| 2026-05-07 21:15 | 32.63547 | -85.43313 | 2855 ft | 146 kts | 5° |
| 2026-05-07 21:15 | 32.64666 | -85.43069 | 3818 ft | 175 kts | 1° |
| 2026-05-07 21:16 | 32.65890 | -85.42723 | 4611 ft | 205 kts | 24° |
| 2026-05-07 21:16 | 32.67015 | -85.41329 | 5008 ft | 273 kts | 59° |
| 2026-05-07 21:16 | 32.67763 | -85.38936 | 5041 ft | 326 kts | 72° |
| 2026-05-07 21:16 | 32.68355 | -85.36400 | 5382 ft | 313 kts | 74° |
| 2026-05-07 21:17 | 32.68745 | -85.33944 | 7178 ft | 306 kts | 89° |
| 2026-05-07 21:17 | 32.68182 | -85.31562 | 8879 ft | 300 kts | 125° |
| 2026-05-07 21:17 | 32.66709 | -85.29829 | 10223 ft | 300 kts | 153° |
| 2026-05-07 21:17 | 32.64886 | -85.28561 | 11466 ft | 307 kts | 159° |
| 2026-05-07 21:18 | 32.62943 | -85.27247 | 12356 ft | 336 kts | 158° |
| 2026-05-07 21:18 | 32.60873 | -85.25720 | 13289 ft | 360 kts | 156° |
| 2026-05-07 21:18 | 32.58750 | -85.24090 | 14590 ft | 366 kts | 157° |
| 2026-05-07 21:18 | 32.56599 | -85.22506 | 15852 ft | 371 kts | 159° |
| 2026-05-07 21:19 | 32.54368 | -85.20901 | 17108 ft | 377 kts | 159° |
| 2026-05-07 21:19 | 32.52114 | -85.19252 | 18313 ft | 385 kts | 159° |
| 2026-05-07 21:19 | 32.49818 | -85.17553 | 19337 ft | 391 kts | 159° |
| 2026-05-07 21:19 | 32.47487 | -85.15838 | 20393 ft | 397 kts | 159° |
| 2026-05-07 21:20 | 32.45114 | -85.14105 | 21401 ft | 404 kts | 159° |
| 2026-05-07 21:20 | 32.42720 | -85.12315 | 22406 ft | 407 kts | 160° |
| 2026-05-07 21:20 | 32.40255 | -85.10661 | 23369 ft | 411 kts | 162° |
| 2026-05-07 21:20 | 32.37752 | -85.08902 | 24176 ft | 423 kts | 158° |
| 2026-05-07 21:21 | 32.35311 | -85.06942 | 24996 ft | 430 kts | 156° |
| 2026-05-07 21:21 | 32.32809 | -85.04947 | 25817 ft | 433 kts | 158° |
| 2026-05-07 21:21 | 32.30244 | -85.03050 | 26634 ft | 436 kts | 160° |
| 2026-05-07 21:21 | 32.27642 | -85.01138 | 27406 ft | 444 kts | 159° |
| 2026-05-07 21:22 | 32.25110 | -84.99040 | 28122 ft | 463 kts | 149° |
| 2026-05-07 21:22 | 32.22987 | -84.96028 | 28856 ft | 491 kts | 129° |
| 2026-05-07 21:22 | 32.21403 | -84.92370 | 29590 ft | 505 kts | 120° |
| 2026-05-07 21:22 | 32.20057 | -84.88523 | 30266 ft | 514 kts | 117° |
| 2026-05-07 21:23 | 32.18784 | -84.84550 | 30954 ft | 518 kts | 116° |
| 2026-05-07 21:23 | 32.17547 | -84.80529 | 31621 ft | 521 kts | 115° |
| 2026-05-07 21:23 | 32.16348 | -84.76546 | 32578 ft | 514 kts | 115° |
| 2026-05-07 21:23 | 32.15022 | -84.72660 | 33364 ft | 504 kts | 127° |
| 2026-05-07 21:24 | 32.12908 | -84.69476 | 33910 ft | 483 kts | 147° |
| 2026-05-07 21:24 | 32.10237 | -84.67218 | 34428 ft | 465 kts | 161° |
| 2026-05-07 21:24 | 32.07454 | -84.65617 | 35684 ft | 435 kts | 168° |
| 2026-05-07 21:24 | 32.04665 | -84.64203 | 36215 ft | 438 kts | 169° |
| 2026-05-07 21:25 | 32.01844 | -84.62703 | 36575 ft | 450 kts | 165° |
| 2026-05-07 21:25 | 31.99082 | -84.60865 | 36996 ft | 461 kts | 160° |
| 2026-05-07 21:25 | 31.96378 | -84.58851 | 37359 ft | 467 kts | 159° |
| 2026-05-07 21:25 | 31.93587 | -84.56855 | 37718 ft | 466 kts | 162° |
| 2026-05-07 21:26 | 31.90754 | -84.55061 | 38072 ft | 466 kts | 164° |
| 2026-05-07 21:26 | 31.87867 | -84.53225 | 38400 ft | 473 kts | 162° |
| 2026-05-07 21:26 | 31.84998 | -84.51257 | 38686 ft | 478 kts | 160° |
| 2026-05-07 21:26 | 31.82155 | -84.49290 | 38953 ft | 479 kts | 161° |
| 2026-05-07 21:27 | 31.79241 | -84.47366 | 39205 ft | 480 kts | 162° |
| 2026-05-07 21:27 | 31.76345 | -84.45466 | 40066 ft | 463 kts | 161° |
| 2026-05-07 21:27 | 31.73582 | -84.43601 | 40692 ft | 458 kts | 162° |
| 2026-05-07 21:27 | 31.70816 | -84.41766 | 40804 ft | 461 kts | 162° |
| 2026-05-07 21:28 | 31.68002 | -84.39907 | 41029 ft | 463 kts | 162° |
| 2026-05-07 21:28 | 31.65187 | -84.38032 | 41231 ft | 465 kts | 161° |
| 2026-05-07 21:28 | 31.62363 | -84.36146 | 41426 ft | 467 kts | 161° |
| 2026-05-07 21:28 | 31.59572 | -84.34293 | 41609 ft | 468 kts | 161° |
| 2026-05-07 21:29 | 31.56726 | -84.32410 | 41788 ft | 470 kts | 161° |
| 2026-05-07 21:29 | 31.53869 | -84.30515 | 41959 ft | 471 kts | 161° |
| 2026-05-07 21:29 | 31.51009 | -84.28617 | 42117 ft | 473 kts | 161° |
| 2026-05-07 21:29 | 31.48159 | -84.26728 | 42274 ft | 474 kts | 161° |
| 2026-05-07 21:30 | 31.45277 | -84.24822 | 42428 ft | 475 kts | 161° |
| 2026-05-07 21:30 | 31.42374 | -84.22904 | 42561 ft | 477 kts | 161° |
| 2026-05-07 21:30 | 31.39512 | -84.21011 | 42701 ft | 478 kts | 161° |
| 2026-05-07 21:30 | 31.36609 | -84.19093 | 42820 ft | 480 kts | 161° |
| 2026-05-07 21:31 | 31.33691 | -84.17168 | 42939 ft | 481 kts | 161° |
| 2026-05-07 21:31 | 31.30759 | -84.15236 | 42980 ft | 484 kts | 161° |
| 2026-05-07 21:31 | 31.24838 | -84.11337 | 42980 ft | 492 kts | 160° |
| 2026-05-07 21:32 | 31.18847 | -84.07394 | 42984 ft | 499 kts | 160° |
| 2026-05-07 21:32 | 31.12734 | -84.03380 | 42992 ft | 505 kts | 160° |
| 2026-05-07 21:33 | 31.06601 | -83.99357 | 42997 ft | 510 kts | 160° |
| 2026-05-07 21:33 | 31.00404 | -83.95294 | 43008 ft | 507 kts | 160° |
| 2026-05-07 21:34 | 30.94300 | -83.91306 | 43004 ft | 504 kts | 160° |
| 2026-05-07 21:34 | 30.88142 | -83.87288 | 43001 ft | 507 kts | 160° |
| 2026-05-07 21:35 | 30.81994 | -83.83278 | 42995 ft | 509 kts | 159° |
| 2026-05-07 21:35 | 30.75821 | -83.79258 | 42988 ft | 506 kts | 159° |
| 2026-05-07 21:36 | 30.69706 | -83.75284 | 42988 ft | 504 kts | 159° |
| 2026-05-07 21:36 | 30.63598 | -83.71321 | 42971 ft | 503 kts | 159° |
| 2026-05-07 21:37 | 30.57444 | -83.67335 | 42968 ft | 507 kts | 159° |
| 2026-05-07 21:37 | 30.51307 | -83.63359 | 42956 ft | 506 kts | 159° |
| 2026-05-07 21:38 | 30.45161 | -83.59389 | 42959 ft | 502 kts | 159° |
| 2026-05-07 21:38 | 30.39076 | -83.55463 | 42969 ft | 502 kts | 159° |
| 2026-05-07 21:39 | 30.32941 | -83.51511 | 42978 ft | 505 kts | 159° |
| 2026-05-07 21:39 | 30.26810 | -83.47565 | 42986 ft | 505 kts | 159° |
| 2026-05-07 21:40 | 30.20682 | -83.43626 | 42992 ft | 501 kts | 159° |
| 2026-05-07 21:40 | 30.14602 | -83.39729 | 42993 ft | 501 kts | 159° |
| 2026-05-07 21:41 | 30.08516 | -83.35829 | 42999 ft | 503 kts | 159° |
| 2026-05-07 21:41 | 30.02360 | -83.31891 | 42996 ft | 505 kts | 159° |
| 2026-05-07 21:42 | 29.96246 | -83.27983 | 42996 ft | 502 kts | 159° |
| 2026-05-07 21:42 | 29.90134 | -83.24085 | 42995 ft | 499 kts | 159° |
| 2026-05-07 21:43 | 29.84060 | -83.20218 | 43002 ft | 501 kts | 158° |
| 2026-05-07 21:43 | 29.77924 | -83.16313 | 43000 ft | 504 kts | 158° |
| 2026-05-07 21:44 | 29.71813 | -83.12431 | 43001 ft | 502 kts | 158° |
| 2026-05-07 21:44 | 29.65710 | -83.08559 | 42998 ft | 499 kts | 158° |
| 2026-05-07 21:45 | 29.59551 | -83.05124 | 42991 ft | 488 kts | 169° |
| 2026-05-07 21:45 | 29.53036 | -83.03387 | 42995 ft | 481 kts | 178° |
| 2026-05-07 21:46 | 29.46425 | -83.01925 | 42998 ft | 482 kts | 177° |
| 2026-05-07 21:46 | 29.39892 | -83.00505 | 43002 ft | 478 kts | 177° |
| 2026-05-07 21:47 | 29.33372 | -82.99081 | 43008 ft | 476 kts | 177° |
| 2026-05-07 21:47 | 29.26865 | -82.97666 | 43013 ft | 478 kts | 177° |
| 2026-05-07 21:48 | 29.20299 | -82.96236 | 43013 ft | 480 kts | 177° |
| 2026-05-07 21:48 | 29.13755 | -82.94814 | 43016 ft | 479 kts | 177° |
| 2026-05-07 21:49 | 29.08296 | -82.93629 | 43024 ft | 477 kts | 177° |
| 2026-05-07 21:49 | 29.01812 | -82.92224 | 43015 ft | 475 kts | 177° |
| 2026-05-07 21:50 | 28.94243 | -82.90587 | 43020 ft | 476 kts | 177° |
| 2026-05-07 21:50 | 28.88795 | -82.89409 | 43020 ft | 478 kts | 177° |
| 2026-05-07 21:51 | 28.82264 | -82.87998 | 43024 ft | 479 kts | 176° |
| 2026-05-07 21:51 | 28.75737 | -82.86589 | 43025 ft | 475 kts | 176° |
| 2026-05-07 21:52 | 28.69238 | -82.85192 | 43026 ft | 474 kts | 176° |
| 2026-05-07 21:52 | 28.62758 | -82.83799 | 43027 ft | 478 kts | 176° |
| 2026-05-07 21:53 | 28.56223 | -82.82394 | 43025 ft | 479 kts | 176° |
| 2026-05-07 21:53 | 28.49699 | -82.80993 | 43024 ft | 476 kts | 176° |
| 2026-05-07 21:54 | 28.43199 | -82.79601 | 43027 ft | 473 kts | 176° |
| 2026-05-07 21:54 | 28.36738 | -82.78294 | 43024 ft | 473 kts | 178° |
| 2026-05-07 21:55 | 28.30199 | -82.76974 | 43024 ft | 480 kts | 174° |
| 2026-05-07 21:55 | 28.23694 | -82.75336 | 43025 ft | 478 kts | 176° |
| 2026-05-07 21:56 | 28.17183 | -82.73920 | 43027 ft | 475 kts | 175° |
| 2026-05-07 21:56 | 28.10717 | -82.72375 | 43025 ft | 473 kts | 175° |
| 2026-05-07 21:57 | 28.04258 | -82.70922 | 43026 ft | 477 kts | 175° |
| 2026-05-07 21:57 | 27.97713 | -82.69395 | 43031 ft | 478 kts | 175° |
| 2026-05-07 21:58 | 27.91219 | -82.67916 | 43024 ft | 480 kts | 175° |
| 2026-05-07 21:58 | 27.84635 | -82.66399 | 43027 ft | 484 kts | 174° |
| 2026-05-07 21:59 | 27.78074 | -82.64895 | 43018 ft | 479 kts | 174° |
| 2026-05-07 21:59 | 27.71572 | -82.63407 | 43012 ft | 474 kts | 174° |
| 2026-05-07 22:00 | 27.65084 | -82.61927 | 43009 ft | 479 kts | 174° |
| 2026-05-07 22:00 | 27.58517 | -82.60425 | 43023 ft | 480 kts | 174° |
| 2026-05-07 22:01 | 27.52011 | -82.58941 | 43030 ft | 477 kts | 174° |
| 2026-05-07 22:01 | 27.45500 | -82.57460 | 43028 ft | 477 kts | 174° |
| 2026-05-07 22:02 | 27.39141 | -82.55068 | 43027 ft | 493 kts | 158° |
| 2026-05-07 22:02 | 27.33229 | -82.50968 | 43036 ft | 497 kts | 152° |
| 2026-05-07 22:03 | 27.27428 | -82.46800 | 43036 ft | 495 kts | 152° |
| 2026-05-07 22:03 | 27.21652 | -82.42637 | 43035 ft | 494 kts | 152° |
| 2026-05-07 22:04 | 27.15844 | -82.38466 | 43024 ft | 494 kts | 152° |
| 2026-05-07 22:04 | 27.10042 | -82.34300 | 43025 ft | 497 kts | 152° |
| 2026-05-07 22:05 | 27.04228 | -82.30133 | 43034 ft | 498 kts | 152° |
| 2026-05-07 22:05 | 26.98400 | -82.25957 | 43033 ft | 495 kts | 152° |
| 2026-05-07 22:06 | 26.92627 | -82.21831 | 43025 ft | 492 kts | 152° |
| 2026-05-07 22:06 | 26.86809 | -82.17676 | 43023 ft | 495 kts | 151° |
| 2026-05-07 22:07 | 26.81001 | -82.13532 | 43023 ft | 498 kts | 151° |
| 2026-05-07 22:07 | 26.75155 | -82.09365 | 43020 ft | 495 kts | 151° |
| 2026-05-07 22:08 | 26.69376 | -82.05254 | 43017 ft | 492 kts | 151° |
| 2026-05-07 22:08 | 26.63602 | -82.01150 | 43016 ft | 495 kts | 151° |
| 2026-05-07 22:09 | 26.57756 | -81.96998 | 43025 ft | 498 kts | 151° |
| 2026-05-07 22:09 | 26.51916 | -81.92852 | 43022 ft | 495 kts | 151° |
| 2026-05-07 22:10 | 26.46157 | -81.88763 | 43019 ft | 492 kts | 151° |
| 2026-05-07 22:10 | 26.40360 | -81.84649 | 42844 ft | 496 kts | 150° |
| 2026-05-07 22:11 | 26.37452 | -81.82587 | 42704 ft | 495 kts | 150° |
| 2026-05-07 22:11 | 26.34545 | -81.80526 | 42567 ft | 492 kts | 150° |
| 2026-05-07 22:11 | 26.31658 | -81.78477 | 42433 ft | 489 kts | 150° |
| 2026-05-07 22:11 | 26.28823 | -81.76465 | 42301 ft | 486 kts | 150° |
| 2026-05-07 22:12 | 26.25962 | -81.74434 | 42161 ft | 486 kts | 150° |
| 2026-05-07 22:12 | 26.23101 | -81.72404 | 42028 ft | 486 kts | 150° |
| 2026-05-07 22:12 | 26.20235 | -81.70372 | 41895 ft | 486 kts | 150° |
| 2026-05-07 22:12 | 26.17402 | -81.68363 | 41766 ft | 487 kts | 150° |
| 2026-05-07 22:13 | 26.14536 | -81.66332 | 41634 ft | 486 kts | 150° |
| 2026-05-07 22:13 | 26.11705 | -81.64326 | 41508 ft | 489 kts | 150° |
| 2026-05-07 22:13 | 26.08806 | -81.62275 | 41375 ft | 492 kts | 150° |
| 2026-05-07 22:13 | 26.05901 | -81.60220 | 41252 ft | 493 kts | 150° |
| 2026-05-07 22:14 | 26.03044 | -81.58200 | 41131 ft | 490 kts | 150° |
| 2026-05-07 22:14 | 26.00156 | -81.56157 | 41005 ft | 487 kts | 150° |
| 2026-05-07 22:14 | 25.97338 | -81.54163 | 40877 ft | 484 kts | 150° |
| 2026-05-07 22:14 | 25.94490 | -81.52147 | 40696 ft | 485 kts | 150° |
| 2026-05-07 22:15 | 25.91627 | -81.50123 | 40447 ft | 487 kts | 150° |
| 2026-05-07 22:15 | 25.88767 | -81.48101 | 40204 ft | 485 kts | 150° |
| 2026-05-07 22:15 | 25.86038 | -81.45982 | 39952 ft | 484 kts | 140° |
| 2026-05-07 22:15 | 25.83955 | -81.43057 | 39703 ft | 485 kts | 118° |
| 2026-05-07 22:16 | 25.82877 | -81.39535 | 39457 ft | 482 kts | 97° |
| 2026-05-07 22:16 | 25.82923 | -81.35797 | 39217 ft | 489 kts | 77° |
| 2026-05-07 22:16 | 25.83904 | -81.32162 | 39002 ft | 493 kts | 67° |
| 2026-05-07 22:16 | 25.85177 | -81.28677 | 38796 ft | 489 kts | 64° |
| 2026-05-07 22:17 | 25.86520 | -81.25219 | 38566 ft | 485 kts | 64° |
| 2026-05-07 22:17 | 25.87689 | -81.21705 | 38294 ft | 484 kts | 71° |
| 2026-05-07 22:17 | 25.88352 | -81.18014 | 38020 ft | 486 kts | 81° |
| 2026-05-07 22:17 | 25.88526 | -81.14302 | 37761 ft | 488 kts | 90° |
| 2026-05-07 22:18 | 25.88218 | -81.10530 | 37502 ft | 489 kts | 96° |
| 2026-05-07 22:18 | 25.87357 | -81.03062 | 36818 ft | 487 kts | 95° |
| 2026-05-07 22:18 | 25.86999 | -80.99327 | 36446 ft | 483 kts | 95° |
| 2026-05-07 22:19 | 25.86618 | -80.95667 | 35983 ft | 484 kts | 96° |
| 2026-05-07 22:19 | 25.86191 | -80.91860 | 35461 ft | 506 kts | 96° |
| 2026-05-07 22:19 | 25.85769 | -80.87983 | 34886 ft | 499 kts | 95° |
| 2026-05-07 22:19 | 25.85374 | -80.84214 | 34318 ft | 485 kts | 95° |
| 2026-05-07 22:20 | 25.84985 | -80.80540 | 33721 ft | 474 kts | 95° |
| 2026-05-07 22:20 | 25.84602 | -80.77041 | 32919 ft | 436 kts | 95° |
| 2026-05-07 22:20 | 25.84238 | -80.73698 | 31913 ft | 450 kts | 95° |
| 2026-05-07 22:20 | 25.83870 | -80.70218 | 30981 ft | 461 kts | 95° |
| 2026-05-07 22:21 | 25.83502 | -80.66856 | 29966 ft | 420 kts | 96° |
| 2026-05-07 22:21 | 25.83154 | -80.63699 | 28775 ft | 410 kts | 96° |
| 2026-05-07 22:21 | 25.82816 | -80.60563 | 27633 ft | 407 kts | 96° |
| 2026-05-07 22:21 | 25.82478 | -80.57452 | 26539 ft | 404 kts | 96° |
| 2026-05-07 22:22 | 25.82141 | -80.54370 | 25496 ft | 401 kts | 96° |
| 2026-05-07 22:22 | 25.81804 | -80.51304 | 24488 ft | 396 kts | 96° |
| 2026-05-07 22:22 | 25.81472 | -80.48288 | 23494 ft | 391 kts | 96° |
| 2026-05-07 22:22 | 25.81149 | -80.45345 | 22093 ft | 382 kts | 96° |
| 2026-05-07 22:23 | 25.80834 | -80.42487 | 20659 ft | 366 kts | 96° |
| 2026-05-07 22:23 | 25.80454 | -80.39739 | 19265 ft | 352 kts | 104° |
| 2026-05-07 22:23 | 25.79294 | -80.37391 | 17861 ft | 344 kts | 132° |
| 2026-05-07 22:23 | 25.77403 | -80.35917 | 16392 ft | 335 kts | 158° |
| 2026-05-07 22:24 | 25.75179 | -80.35283 | 14990 ft | 326 kts | 162° |
| 2026-05-07 22:24 | 25.73270 | -80.34077 | 13864 ft | 315 kts | 139° |
| 2026-05-07 22:24 | 25.71675 | -80.32451 | 12883 ft | 312 kts | 134° |
| 2026-05-07 22:24 | 25.70138 | -80.30768 | 11918 ft | 306 kts | 133° |
| 2026-05-07 22:25 | 25.68672 | -80.29140 | 10981 ft | 291 kts | 133° |
| 2026-05-07 22:25 | 25.67261 | -80.27565 | 10067 ft | 283 kts | 133° |
| 2026-05-07 22:25 | 25.65886 | -80.26019 | 9085 ft | 279 kts | 133° |
| 2026-05-07 22:25 | 25.64533 | -80.24478 | 8114 ft | 277 kts | 133° |
| 2026-05-07 22:26 | 25.63216 | -80.22952 | 7322 ft | 272 kts | 133° |
| 2026-05-07 22:26 | 25.61781 | -80.21592 | 6726 ft | 274 kts | 151° |
| 2026-05-07 22:26 | 25.59976 | -80.21117 | 6227 ft | 257 kts | 184° |
| 2026-05-07 22:26 | 25.58349 | -80.21665 | 5839 ft | 254 kts | 208° |
| 2026-05-07 22:27 | 25.56833 | -80.22611 | 5471 ft | 238 kts | 212° |
| 2026-05-07 22:27 | 25.55410 | -80.23526 | 5097 ft | 240 kts | 212° |
| 2026-05-07 22:27 | 25.53975 | -80.24454 | 5007 ft | 241 kts | 213° |
| 2026-05-07 22:27 | 25.52438 | -80.25299 | 5002 ft | 244 kts | 204° |
| 2026-05-07 22:28 | 25.50920 | -80.25939 | 4840 ft | 225 kts | 203° |
| 2026-05-07 22:28 | 25.49437 | -80.26546 | 4581 ft | 231 kts | 203° |
| 2026-05-07 22:28 | 25.47954 | -80.27153 | 4323 ft | 218 kts | 202° |
| 2026-05-07 22:28 | 25.46501 | -80.27396 | 4048 ft | 207 kts | 181° |
| 2026-05-07 22:29 | 25.45095 | -80.27298 | 3790 ft | 199 kts | 178° |
| 2026-05-07 22:29 | 25.43744 | -80.27247 | 3527 ft | 197 kts | 182° |
| 2026-05-07 22:29 | 25.42386 | -80.27284 | 3179 ft | 190 kts | 184° |
| 2026-05-07 22:29 | 25.41085 | -80.27330 | 2813 ft | 186 kts | 182° |
| 2026-05-07 22:30 | 25.39786 | -80.27367 | 2462 ft | 186 kts | 181° |
| 2026-05-07 22:30 | 25.38495 | -80.27402 | 2104 ft | 185 kts | 181° |
| 2026-05-07 22:30 | 25.37319 | -80.27436 | 2017 ft | 152 kts | 180° |
| 2026-05-07 22:30 | 25.36296 | -80.27681 | 1897 ft | 151 kts | 202° |
| 2026-05-07 22:31 | 25.35381 | -80.28271 | 1537 ft | 149 kts | 208° |
| 2026-05-07 22:31 | 25.34476 | -80.28824 | 1390 ft | 147 kts | 206° |
| 2026-05-07 22:31 | 25.33659 | -80.29320 | 1225 ft | 125 kts | 207° |
| 2026-05-07 22:31 | 25.32963 | -80.29896 | 1022 ft | 126 kts | 216° |
| 2026-05-07 22:32 | 25.32283 | -80.30506 | 712 ft | 111 kts | 205° |
| 2026-05-07 22:32 | 25.31534 | -80.30586 | 663 ft | 119 kts | 161° |
| 2026-05-07 22:32 | 25.30986 | -80.29995 | 555 ft | 108 kts | 116° |
| 2026-05-07 22:32 | 25.31036 | -80.29137 | 334 ft | 124 kts | 64° |
| 2026-05-07 22:33 | 25.31552 | -80.28365 | 177 ft | 124 kts | 50° |
| 2026-05-07 22:33 | 25.32225 | -80.27756 | 14 ft | 119 kts | 41° |
| 2026-05-07 22:33 | 25.32687 | -80.27352 | 7 ft | 15 kts | 44° |
| 2026-05-07 22:33 | 25.32703 | -80.27346 | 7 ft | 1 kts | 323° |
| 2026-05-07 22:34 | 25.32688 | -80.27364 | 7 ft | 12 kts | 219° |
| 2026-05-07 22:34 | 25.32546 | -80.27477 | 3 ft | 33 kts | 216° |
| 2026-05-07 22:34 | 25.32369 | -80.27627 | 1 ft | 32 kts | 219° |
| 2026-05-07 22:34 | 25.32234 | -80.27714 | 2 ft | 19 kts | 185° |
| 2026-05-07 22:35 | 25.32185 | -80.27742 | 3 ft | 0 kts | 283° |